sensor_id;sensor_type;location;lat;lon;timestamp;temperature;humidity
20973;DHT22;10645;52.370;13.314;2023-07-29T00:02:14;15.50;99.90
20973;DHT22;10645;52.370;13.314;2023-07-29T00:04:40;15.40;99.90
20973;DHT22;10645;52.370;13.314;2023-07-29T00:07:06;15.40;99.90
20973;DHT22;10645;52.370;13.314;2023-07-29T00:09:32;15.40;99.90
20973;DHT22;10645;52.370;13.314;2023-07-29T00:11:58;15.30;99.90
20973;DHT22;10645;52.370;13.314;2023-07-29T00:14:24;15.30;99.90
20973;DHT22;10645;52.370;13.314;2023-07-29T00:16:50;15.30;99.90
20973;DHT22;10645;52.370;13.314;2023-07-29T00:19:16;15.30;99.90
20973;DHT22;10645;52.370;13.314;2023-07-29T00:21:43;15.30;99.90
20973;DHT22;10645;52.370;13.314;2023-07-29T00:24:09;15.20;99.90
20973;DHT22;10645;52.370;13.314;2023-07-29T00:26:35;15.20;99.90
20973;DHT22;10645;52.370;13.314;2023-07-29T00:29:01;15.20;99.90
20973;DHT22;10645;52.370;13.314;2023-07-29T00:31:27;15.10;99.90
20973;DHT22;10645;52.370;13.314;2023-07-29T00:33:53;15.10;99.90
20973;DHT22;10645;52.370;13.314;2023-07-29T00:36:20;15.10;99.90
20973;DHT22;10645;52.370;13.314;2023-07-29T00:38:46;15.00;99.90
20973;DHT22;10645;52.370;13.314;2023-07-29T00:41:13;15.00;99.90
20973;DHT22;10645;52.370;13.314;2023-07-29T00:43:41;15.00;99.90
20973;DHT22;10645;52.370;13.314;2023-07-29T00:46:08;14.90;99.90
20973;DHT22;10645;52.370;13.314;2023-07-29T00:48:36;14.80;99.90
20973;DHT22;10645;52.370;13.314;2023-07-29T00:51:02;14.80;99.90
20973;DHT22;10645;52.370;13.314;2023-07-29T00:53:28;14.80;99.90
20973;DHT22;10645;52.370;13.314;2023-07-29T00:55:54;14.70;99.90
20973;DHT22;10645;52.370;13.314;2023-07-29T00:58:20;14.70;99.90
20973;DHT22;10645;52.370;13.314;2023-07-29T01:00:47;14.70;99.90
20973;DHT22;10645;52.370;13.314;2023-07-29T01:03:13;14.70;99.90
20973;DHT22;10645;52.370;13.314;2023-07-29T01:06:18;14.70;99.90
20973;DHT22;10645;52.370;13.314;2023-07-29T01:09:02;14.70;99.90
20973;DHT22;10645;52.370;13.314;2023-07-29T01:11:50;14.60;99.90
20973;DHT22;10645;52.370;13.314;2023-07-29T01:14:33;14.60;99.90
20973;DHT22;10645;52.370;13.314;2023-07-29T01:17:03;14.50;99.90
20973;DHT22;10645;52.370;13.314;2023-07-29T01:22:35;14.50;99.90
20973;DHT22;10645;52.370;13.314;2023-07-29T01:25:02;14.50;99.90
20973;DHT22;10645;52.370;13.314;2023-07-29T01:27:28;14.50;99.90
20973;DHT22;10645;52.370;13.314;2023-07-29T01:29:55;14.50;99.90
20973;DHT22;10645;52.370;13.314;2023-07-29T01:32:35;14.50;99.90
20973;DHT22;10645;52.370;13.314;2023-07-29T01:35:10;14.50;99.90
20973;DHT22;10645;52.370;13.314;2023-07-29T01:37:38;14.40;99.90
20973;DHT22;10645;52.370;13.314;2023-07-29T01:40:07;14.40;99.90
20973;DHT22;10645;52.370;13.314;2023-07-29T01:42:34;14.40;99.90
20973;DHT22;10645;52.370;13.314;2023-07-29T01:45:00;14.30;99.90
20973;DHT22;10645;52.370;13.314;2023-07-29T01:47:26;14.30;99.90
20973;DHT22;10645;52.370;13.314;2023-07-29T01:49:54;14.20;99.90
20973;DHT22;10645;52.370;13.314;2023-07-29T01:52:20;14.20;99.90
20973;DHT22;10645;52.370;13.314;2023-07-29T01:54:47;14.10;99.90
20973;DHT22;10645;52.370;13.314;2023-07-29T01:57:13;14.10;99.90
20973;DHT22;10645;52.370;13.314;2023-07-29T01:59:39;14.00;99.90
20973;DHT22;10645;52.370;13.314;2023-07-29T02:02:06;14.00;99.90
20973;DHT22;10645;52.370;13.314;2023-07-29T02:04:32;14.00;99.90
20973;DHT22;10645;52.370;13.314;2023-07-29T02:06:58;14.00;99.90
20973;DHT22;10645;52.370;13.314;2023-07-29T02:09:24;13.90;99.90
20973;DHT22;10645;52.370;13.314;2023-07-29T02:11:51;13.90;99.90
20973;DHT22;10645;52.370;13.314;2023-07-29T02:14:17;13.90;99.90
20973;DHT22;10645;52.370;13.314;2023-07-29T02:16:43;13.80;99.90
20973;DHT22;10645;52.370;13.314;2023-07-29T02:19:10;13.80;99.90
20973;DHT22;10645;52.370;13.314;2023-07-29T02:21:36;13.80;99.90
20973;DHT22;10645;52.370;13.314;2023-07-29T02:24:02;13.80;99.90
20973;DHT22;10645;52.370;13.314;2023-07-29T02:26:30;13.80;99.90
20973;DHT22;10645;52.370;13.314;2023-07-29T02:28:56;13.80;99.90
20973;DHT22;10645;52.370;13.314;2023-07-29T02:31:24;13.80;99.90
20973;DHT22;10645;52.370;13.314;2023-07-29T02:33:51;13.70;99.90
20973;DHT22;10645;52.370;13.314;2023-07-29T02:36:18;13.70;99.90
20973;DHT22;10645;52.370;13.314;2023-07-29T02:38:44;13.70;99.90
20973;DHT22;10645;52.370;13.314;2023-07-29T02:41:10;13.70;99.90
20973;DHT22;10645;52.370;13.314;2023-07-29T02:43:38;13.60;99.90
20973;DHT22;10645;52.370;13.314;2023-07-29T02:46:05;13.60;99.90
20973;DHT22;10645;52.370;13.314;2023-07-29T02:48:31;13.60;99.90
20973;DHT22;10645;52.370;13.314;2023-07-29T02:50:58;13.60;99.90
20973;DHT22;10645;52.370;13.314;2023-07-29T02:53:24;13.60;99.90
20973;DHT22;10645;52.370;13.314;2023-07-29T02:55:51;13.60;99.90
20973;DHT22;10645;52.370;13.314;2023-07-29T02:58:17;13.60;99.90
20973;DHT22;10645;52.370;13.314;2023-07-29T03:00:43;13.60;99.90
20973;DHT22;10645;52.370;13.314;2023-07-29T03:03:09;13.50;99.90
20973;DHT22;10645;52.370;13.314;2023-07-29T03:05:35;13.60;99.90
20973;DHT22;10645;52.370;13.314;2023-07-29T03:08:02;13.60;99.90
20973;DHT22;10645;52.370;13.314;2023-07-29T03:10:28;13.70;99.90
20973;DHT22;10645;52.370;13.314;2023-07-29T03:12:54;13.80;99.90
20973;DHT22;10645;52.370;13.314;2023-07-29T03:15:24;13.80;99.90
20973;DHT22;10645;52.370;13.314;2023-07-29T03:17:53;13.80;99.90
20973;DHT22;10645;52.370;13.314;2023-07-29T03:20:19;13.80;99.90
20973;DHT22;10645;52.370;13.314;2023-07-29T03:22:46;13.80;99.90
20973;DHT22;10645;52.370;13.314;2023-07-29T03:25:13;13.80;99.90
20973;DHT22;10645;52.370;13.314;2023-07-29T03:27:39;13.80;99.90
20973;DHT22;10645;52.370;13.314;2023-07-29T03:30:08;13.80;99.90
20973;DHT22;10645;52.370;13.314;2023-07-29T03:32:35;13.90;99.90
20973;DHT22;10645;52.370;13.314;2023-07-29T03:35:01;13.90;99.90
20973;DHT22;10645;52.370;13.314;2023-07-29T03:37:27;13.90;99.90
20973;DHT22;10645;52.370;13.314;2023-07-29T03:39:53;13.90;99.90
20973;DHT22;10645;52.370;13.314;2023-07-29T03:42:19;13.90;99.90
20973;DHT22;10645;52.370;13.314;2023-07-29T03:44:45;13.90;99.90
20973;DHT22;10645;52.370;13.314;2023-07-29T03:47:11;14.00;99.90
20973;DHT22;10645;52.370;13.314;2023-07-29T03:49:40;14.00;99.90
20973;DHT22;10645;52.370;13.314;2023-07-29T03:52:06;14.10;99.90
20973;DHT22;10645;52.370;13.314;2023-07-29T03:54:32;14.10;99.90
20973;DHT22;10645;52.370;13.314;2023-07-29T03:56:58;14.10;99.90
20973;DHT22;10645;52.370;13.314;2023-07-29T03:59:24;14.20;99.90
20973;DHT22;10645;52.370;13.314;2023-07-29T04:01:51;14.30;99.90
20973;DHT22;10645;52.370;13.314;2023-07-29T04:04:17;14.40;99.90
20973;DHT22;10645;52.370;13.314;2023-07-29T04:06:43;14.50;99.90
20973;DHT22;10645;52.370;13.314;2023-07-29T04:09:09;14.60;99.90
20973;DHT22;10645;52.370;13.314;2023-07-29T04:11:35;14.60;99.90
20973;DHT22;10645;52.370;13.314;2023-07-29T04:14:01;14.70;99.90
20973;DHT22;10645;52.370;13.314;2023-07-29T04:16:27;14.70;99.90
20973;DHT22;10645;52.370;13.314;2023-07-29T04:18:54;14.70;99.90
20973;DHT22;10645;52.370;13.314;2023-07-29T04:21:20;14.80;99.90
20973;DHT22;10645;52.370;13.314;2023-07-29T04:23:47;14.80;99.90
20973;DHT22;10645;52.370;13.314;2023-07-29T04:26:13;14.90;99.90
20973;DHT22;10645;52.370;13.314;2023-07-29T04:28:39;15.00;99.90
20973;DHT22;10645;52.370;13.314;2023-07-29T04:31:05;15.00;99.90
20973;DHT22;10645;52.370;13.314;2023-07-29T04:33:32;15.00;99.90
20973;DHT22;10645;52.370;13.314;2023-07-29T04:35:58;15.10;99.90
20973;DHT22;10645;52.370;13.314;2023-07-29T04:38:30;15.20;99.90
20973;DHT22;10645;52.370;13.314;2023-07-29T04:40:57;15.20;99.90
20973;DHT22;10645;52.370;13.314;2023-07-29T04:43:30;15.30;99.90
20973;DHT22;10645;52.370;13.314;2023-07-29T04:45:56;15.30;99.90
20973;DHT22;10645;52.370;13.314;2023-07-29T04:48:23;15.40;99.90
20973;DHT22;10645;52.370;13.314;2023-07-29T04:50:49;15.50;99.90
20973;DHT22;10645;52.370;13.314;2023-07-29T04:53:15;15.60;99.90
20973;DHT22;10645;52.370;13.314;2023-07-29T04:55:42;15.70;99.90
20973;DHT22;10645;52.370;13.314;2023-07-29T04:58:09;15.80;99.90
20973;DHT22;10645;52.370;13.314;2023-07-29T05:00:36;15.90;99.90
20973;DHT22;10645;52.370;13.314;2023-07-29T05:03:03;16.00;99.90
20973;DHT22;10645;52.370;13.314;2023-07-29T05:05:29;16.00;99.90
20973;DHT22;10645;52.370;13.314;2023-07-29T05:07:55;16.20;99.90
20973;DHT22;10645;52.370;13.314;2023-07-29T05:10:21;16.40;99.90
20973;DHT22;10645;52.370;13.314;2023-07-29T05:12:48;16.60;99.90
20973;DHT22;10645;52.370;13.314;2023-07-29T05:15:14;16.90;99.90
20973;DHT22;10645;52.370;13.314;2023-07-29T05:17:40;17.10;99.90
20973;DHT22;10645;52.370;13.314;2023-07-29T05:20:07;17.20;99.90
20973;DHT22;10645;52.370;13.314;2023-07-29T05:22:34;17.30;99.90
20973;DHT22;10645;52.370;13.314;2023-07-29T05:25:00;17.30;99.90
20973;DHT22;10645;52.370;13.314;2023-07-29T05:27:26;17.30;99.90
20973;DHT22;10645;52.370;13.314;2023-07-29T05:29:52;17.40;99.90
20973;DHT22;10645;52.370;13.314;2023-07-29T05:32:18;17.50;99.90
20973;DHT22;10645;52.370;13.314;2023-07-29T05:34:44;17.60;99.90
20973;DHT22;10645;52.370;13.314;2023-07-29T05:37:10;17.70;99.90
20973;DHT22;10645;52.370;13.314;2023-07-29T05:39:36;17.90;99.90
20973;DHT22;10645;52.370;13.314;2023-07-29T05:42:03;18.10;99.90
20973;DHT22;10645;52.370;13.314;2023-07-29T05:44:29;18.30;99.90
20973;DHT22;10645;52.370;13.314;2023-07-29T05:46:58;18.50;99.90
20973;DHT22;10645;52.370;13.314;2023-07-29T05:49:24;18.60;99.90
20973;DHT22;10645;52.370;13.314;2023-07-29T05:51:50;18.70;99.90
20973;DHT22;10645;52.370;13.314;2023-07-29T05:54:18;18.70;99.90
20973;DHT22;10645;52.370;13.314;2023-07-29T05:56:44;18.70;99.90
20973;DHT22;10645;52.370;13.314;2023-07-29T05:59:10;18.80;99.90
20973;DHT22;10645;52.370;13.314;2023-07-29T06:01:37;18.70;99.90
20973;DHT22;10645;52.370;13.314;2023-07-29T06:04:03;18.80;99.90
20973;DHT22;10645;52.370;13.314;2023-07-29T06:06:29;18.90;99.90
20973;DHT22;10645;52.370;13.314;2023-07-29T06:08:55;19.00;99.90
20973;DHT22;10645;52.370;13.314;2023-07-29T06:11:25;19.10;99.90
20973;DHT22;10645;52.370;13.314;2023-07-29T06:13:51;19.10;99.90
20973;DHT22;10645;52.370;13.314;2023-07-29T06:16:17;19.10;99.90
20973;DHT22;10645;52.370;13.314;2023-07-29T06:18:45;19.10;99.90
20973;DHT22;10645;52.370;13.314;2023-07-29T06:21:11;19.10;99.90
20973;DHT22;10645;52.370;13.314;2023-07-29T06:23:43;19.20;99.90
20973;DHT22;10645;52.370;13.314;2023-07-29T06:26:09;19.30;99.90
20973;DHT22;10645;52.370;13.314;2023-07-29T06:28:35;19.50;99.90
20973;DHT22;10645;52.370;13.314;2023-07-29T06:31:01;19.60;99.90
20973;DHT22;10645;52.370;13.314;2023-07-29T06:33:28;19.70;99.90
20973;DHT22;10645;52.370;13.314;2023-07-29T06:35:54;19.80;99.90
20973;DHT22;10645;52.370;13.314;2023-07-29T06:38:20;19.90;99.90
20973;DHT22;10645;52.370;13.314;2023-07-29T06:40:48;19.90;99.90
20973;DHT22;10645;52.370;13.314;2023-07-29T06:43:14;20.10;99.90
20973;DHT22;10645;52.370;13.314;2023-07-29T06:45:40;20.30;99.90
20973;DHT22;10645;52.370;13.314;2023-07-29T06:48:06;20.40;99.90
20973;DHT22;10645;52.370;13.314;2023-07-29T06:50:32;20.60;99.90
20973;DHT22;10645;52.370;13.314;2023-07-29T06:52:58;20.90;99.90
20973;DHT22;10645;52.370;13.314;2023-07-29T06:55:25;21.10;99.90
20973;DHT22;10645;52.370;13.314;2023-07-29T06:57:51;21.10;99.90
20973;DHT22;10645;52.370;13.314;2023-07-29T07:00:17;21.20;99.90
20973;DHT22;10645;52.370;13.314;2023-07-29T07:02:43;21.30;99.90
20973;DHT22;10645;52.370;13.314;2023-07-29T07:05:09;21.30;99.90
20973;DHT22;10645;52.370;13.314;2023-07-29T07:07:35;21.30;99.90
20973;DHT22;10645;52.370;13.314;2023-07-29T07:10:01;21.30;99.90
20973;DHT22;10645;52.370;13.314;2023-07-29T07:12:27;21.30;99.90
20973;DHT22;10645;52.370;13.314;2023-07-29T07:14:53;21.40;99.90
20973;DHT22;10645;52.370;13.314;2023-07-29T07:17:19;21.50;99.90
20973;DHT22;10645;52.370;13.314;2023-07-29T07:19:46;21.60;99.90
20973;DHT22;10645;52.370;13.314;2023-07-29T07:22:12;21.70;99.90
20973;DHT22;10645;52.370;13.314;2023-07-29T07:24:38;21.70;99.90
20973;DHT22;10645;52.370;13.314;2023-07-29T07:27:04;21.80;99.90
20973;DHT22;10645;52.370;13.314;2023-07-29T07:29:30;21.80;99.90
20973;DHT22;10645;52.370;13.314;2023-07-29T07:31:56;21.90;99.90
20973;DHT22;10645;52.370;13.314;2023-07-29T07:34:23;22.00;99.90
20973;DHT22;10645;52.370;13.314;2023-07-29T07:36:49;22.20;99.90
20973;DHT22;10645;52.370;13.314;2023-07-29T07:39:15;22.40;99.90
20973;DHT22;10645;52.370;13.314;2023-07-29T07:41:42;22.50;99.90
20973;DHT22;10645;52.370;13.314;2023-07-29T07:44:08;22.70;99.90
20973;DHT22;10645;52.370;13.314;2023-07-29T07:46:34;22.70;99.90
20973;DHT22;10645;52.370;13.314;2023-07-29T07:49:00;22.80;99.90
20973;DHT22;10645;52.370;13.314;2023-07-29T07:51:26;23.10;99.90
20973;DHT22;10645;52.370;13.314;2023-07-29T07:53:52;23.20;99.90
20973;DHT22;10645;52.370;13.314;2023-07-29T07:56:18;23.30;99.90
20973;DHT22;10645;52.370;13.314;2023-07-29T07:58:44;23.40;99.90
20973;DHT22;10645;52.370;13.314;2023-07-29T08:01:11;23.50;99.90
20973;DHT22;10645;52.370;13.314;2023-07-29T08:03:37;23.50;99.90
20973;DHT22;10645;52.370;13.314;2023-07-29T08:06:04;23.40;99.90
20973;DHT22;10645;52.370;13.314;2023-07-29T08:08:30;23.50;99.90
20973;DHT22;10645;52.370;13.314;2023-07-29T08:10:57;23.40;99.90
20973;DHT22;10645;52.370;13.314;2023-07-29T08:13:24;23.50;99.90
20973;DHT22;10645;52.370;13.314;2023-07-29T08:15:51;23.60;99.90
20973;DHT22;10645;52.370;13.314;2023-07-29T08:18:18;23.70;99.90
20973;DHT22;10645;52.370;13.314;2023-07-29T08:20:55;23.80;99.90
20973;DHT22;10645;52.370;13.314;2023-07-29T08:23:21;23.80;99.90
20973;DHT22;10645;52.370;13.314;2023-07-29T08:25:55;23.80;99.90
20973;DHT22;10645;52.370;13.314;2023-07-29T08:28:23;24.10;99.90
20973;DHT22;10645;52.370;13.314;2023-07-29T08:30:49;24.30;99.90
20973;DHT22;10645;52.370;13.314;2023-07-29T08:33:15;24.30;99.90
20973;DHT22;10645;52.370;13.314;2023-07-29T08:35:41;24.10;99.90
20973;DHT22;10645;52.370;13.314;2023-07-29T08:38:07;24.10;99.90
20973;DHT22;10645;52.370;13.314;2023-07-29T08:40:35;24.20;99.90
20973;DHT22;10645;52.370;13.314;2023-07-29T08:43:04;24.40;99.90
20973;DHT22;10645;52.370;13.314;2023-07-29T08:45:34;24.60;99.90
20973;DHT22;10645;52.370;13.314;2023-07-29T08:48:02;24.70;99.90
20973;DHT22;10645;52.370;13.314;2023-07-29T08:50:32;24.60;99.90
20973;DHT22;10645;52.370;13.314;2023-07-29T08:53:00;24.70;99.90
20973;DHT22;10645;52.370;13.314;2023-07-29T08:55:29;24.60;99.90
20973;DHT22;10645;52.370;13.314;2023-07-29T08:57:58;24.60;99.90
20973;DHT22;10645;52.370;13.314;2023-07-29T09:00:25;24.60;99.90
20973;DHT22;10645;52.370;13.314;2023-07-29T09:02:51;24.60;99.90
20973;DHT22;10645;52.370;13.314;2023-07-29T09:05:18;24.80;99.90
20973;DHT22;10645;52.370;13.314;2023-07-29T09:07:44;25.00;99.90
20973;DHT22;10645;52.370;13.314;2023-07-29T09:10:13;25.30;99.90
20973;DHT22;10645;52.370;13.314;2023-07-29T09:12:40;25.50;99.90
20973;DHT22;10645;52.370;13.314;2023-07-29T09:15:06;25.40;99.90
20973;DHT22;10645;52.370;13.314;2023-07-29T09:17:33;25.40;99.90
20973;DHT22;10645;52.370;13.314;2023-07-29T09:19:59;25.40;99.90
20973;DHT22;10645;52.370;13.314;2023-07-29T09:22:27;25.30;99.90
20973;DHT22;10645;52.370;13.314;2023-07-29T09:24:53;25.00;99.90
20973;DHT22;10645;52.370;13.314;2023-07-29T09:27:26;25.00;99.90
20973;DHT22;10645;52.370;13.314;2023-07-29T09:29:56;24.80;99.90
20973;DHT22;10645;52.370;13.314;2023-07-29T09:32:24;24.80;99.90
20973;DHT22;10645;52.370;13.314;2023-07-29T09:34:51;24.80;99.90
20973;DHT22;10645;52.370;13.314;2023-07-29T09:37:23;25.00;99.90
20973;DHT22;10645;52.370;13.314;2023-07-29T09:39:50;25.20;99.90
20973;DHT22;10645;52.370;13.314;2023-07-29T09:42:20;25.40;99.90
20973;DHT22;10645;52.370;13.314;2023-07-29T09:44:47;25.60;99.90
20973;DHT22;10645;52.370;13.314;2023-07-29T09:47:21;25.60;99.90
20973;DHT22;10645;52.370;13.314;2023-07-29T09:49:47;25.90;99.90
20973;DHT22;10645;52.370;13.314;2023-07-29T09:52:16;25.80;99.90
20973;DHT22;10645;52.370;13.314;2023-07-29T09:54:43;25.70;99.90
20973;DHT22;10645;52.370;13.314;2023-07-29T09:57:11;25.90;99.90
20973;DHT22;10645;52.370;13.314;2023-07-29T09:59:37;26.20;99.90
20973;DHT22;10645;52.370;13.314;2023-07-29T10:02:04;26.50;99.90
20973;DHT22;10645;52.370;13.314;2023-07-29T10:04:31;26.40;99.90
20973;DHT22;10645;52.370;13.314;2023-07-29T10:06:59;26.20;99.90
20973;DHT22;10645;52.370;13.314;2023-07-29T10:09:26;25.90;99.90
20973;DHT22;10645;52.370;13.314;2023-07-29T10:11:53;25.50;99.90
20973;DHT22;10645;52.370;13.314;2023-07-29T10:14:20;25.30;99.90
20973;DHT22;10645;52.370;13.314;2023-07-29T10:16:47;25.40;99.90
20973;DHT22;10645;52.370;13.314;2023-07-29T10:19:15;25.40;99.90
20973;DHT22;10645;52.370;13.314;2023-07-29T10:21:44;25.40;99.90
20973;DHT22;10645;52.370;13.314;2023-07-29T10:24:15;25.50;99.90
20973;DHT22;10645;52.370;13.314;2023-07-29T10:26:43;25.60;99.90
20973;DHT22;10645;52.370;13.314;2023-07-29T10:29:12;25.80;99.90
20973;DHT22;10645;52.370;13.314;2023-07-29T10:31:40;25.90;99.90
20973;DHT22;10645;52.370;13.314;2023-07-29T10:34:09;26.10;99.90
20973;DHT22;10645;52.370;13.314;2023-07-29T10:36:35;26.00;99.90
20973;DHT22;10645;52.370;13.314;2023-07-29T10:39:02;26.10;99.90
20973;DHT22;10645;52.370;13.314;2023-07-29T10:41:59;26.10;99.90
20973;DHT22;10645;52.370;13.314;2023-07-29T10:44:46;26.10;99.90
20973;DHT22;10645;52.370;13.314;2023-07-29T10:47:16;26.30;99.90
20973;DHT22;10645;52.370;13.314;2023-07-29T10:49:43;26.20;99.90
20973;DHT22;10645;52.370;13.314;2023-07-29T10:52:14;26.20;99.90
20973;DHT22;10645;52.370;13.314;2023-07-29T10:54:46;26.00;99.90
20973;DHT22;10645;52.370;13.314;2023-07-29T10:57:17;25.80;99.90
20973;DHT22;10645;52.370;13.314;2023-07-29T10:59:56;25.60;99.90
20973;DHT22;10645;52.370;13.314;2023-07-29T11:02:32;25.30;99.90
20973;DHT22;10645;52.370;13.314;2023-07-29T11:04:59;25.10;99.90
20973;DHT22;10645;52.370;13.314;2023-07-29T11:07:26;24.70;99.90
20973;DHT22;10645;52.370;13.314;2023-07-29T11:15:26;23.00;99.90
20973;DHT22;10645;52.370;13.314;2023-07-29T11:17:57;23.20;99.90
20973;DHT22;10645;52.370;13.314;2023-07-29T11:20:33;23.10;99.90
20973;DHT22;10645;52.370;13.314;2023-07-29T11:23:01;22.90;99.90
20973;DHT22;10645;52.370;13.314;2023-07-29T11:25:29;22.70;99.90
20973;DHT22;10645;52.370;13.314;2023-07-29T11:27:57;22.50;99.90
20973;DHT22;10645;52.370;13.314;2023-07-29T11:30:24;22.30;99.90
20973;DHT22;10645;52.370;13.314;2023-07-29T11:32:53;22.30;99.90
20973;DHT22;10645;52.370;13.314;2023-07-29T11:35:20;22.40;99.90
20973;DHT22;10645;52.370;13.314;2023-07-29T11:37:48;22.50;99.90
20973;DHT22;10645;52.370;13.314;2023-07-29T11:40:19;22.70;99.90
20973;DHT22;10645;52.370;13.314;2023-07-29T11:42:47;22.90;99.90
20973;DHT22;10645;52.370;13.314;2023-07-29T11:45:14;23.00;99.90
20973;DHT22;10645;52.370;13.314;2023-07-29T11:47:40;22.90;99.90
20973;DHT22;10645;52.370;13.314;2023-07-29T11:50:07;22.80;99.90
20973;DHT22;10645;52.370;13.314;2023-07-29T11:52:41;22.50;99.90
20973;DHT22;10645;52.370;13.314;2023-07-29T11:55:08;22.40;99.90
20973;DHT22;10645;52.370;13.314;2023-07-29T11:57:36;22.30;99.90
20973;DHT22;10645;52.370;13.314;2023-07-29T12:00:07;22.20;99.90
20973;DHT22;10645;52.370;13.314;2023-07-29T12:02:40;22.10;99.90
20973;DHT22;10645;52.370;13.314;2023-07-29T12:05:08;22.10;99.90
20973;DHT22;10645;52.370;13.314;2023-07-29T12:07:35;22.00;99.90
20973;DHT22;10645;52.370;13.314;2023-07-29T12:10:03;22.00;99.90
20973;DHT22;10645;52.370;13.314;2023-07-29T12:12:29;21.80;99.90
20973;DHT22;10645;52.370;13.314;2023-07-29T12:14:56;21.70;99.90
20973;DHT22;10645;52.370;13.314;2023-07-29T12:17:22;21.60;99.90
20973;DHT22;10645;52.370;13.314;2023-07-29T12:19:48;21.60;99.90
20973;DHT22;10645;52.370;13.314;2023-07-29T12:22:19;21.60;99.90
20973;DHT22;10645;52.370;13.314;2023-07-29T12:24:45;21.50;99.90
20973;DHT22;10645;52.370;13.314;2023-07-29T12:27:14;21.40;99.90
20973;DHT22;10645;52.370;13.314;2023-07-29T12:29:42;21.60;99.90
20973;DHT22;10645;52.370;13.314;2023-07-29T12:32:09;21.60;99.90
20973;DHT22;10645;52.370;13.314;2023-07-29T12:34:37;21.80;99.90
20973;DHT22;10645;52.370;13.314;2023-07-29T12:37:05;21.90;99.90
20973;DHT22;10645;52.370;13.314;2023-07-29T12:39:33;22.10;99.90
20973;DHT22;10645;52.370;13.314;2023-07-29T12:42:01;22.40;99.90
20973;DHT22;10645;52.370;13.314;2023-07-29T12:44:30;22.60;99.90
20973;DHT22;10645;52.370;13.314;2023-07-29T12:46:56;22.70;99.90
20973;DHT22;10645;52.370;13.314;2023-07-29T12:49:22;23.00;99.90
20973;DHT22;10645;52.370;13.314;2023-07-29T12:51:48;22.80;99.90
20973;DHT22;10645;52.370;13.314;2023-07-29T12:54:14;23.00;99.90
20973;DHT22;10645;52.370;13.314;2023-07-29T12:56:40;23.40;99.90
20973;DHT22;10645;52.370;13.314;2023-07-29T12:59:07;23.60;99.90
20973;DHT22;10645;52.370;13.314;2023-07-29T13:01:33;23.70;99.90
20973;DHT22;10645;52.370;13.314;2023-07-29T13:03:59;23.90;99.90
20973;DHT22;10645;52.370;13.314;2023-07-29T13:06:25;24.00;99.90
20973;DHT22;10645;52.370;13.314;2023-07-29T13:08:51;24.20;99.90
20973;DHT22;10645;52.370;13.314;2023-07-29T13:11:17;24.10;99.90
20973;DHT22;10645;52.370;13.314;2023-07-29T13:13:44;24.00;99.90
20973;DHT22;10645;52.370;13.314;2023-07-29T13:16:11;23.60;99.90
20973;DHT22;10645;52.370;13.314;2023-07-29T13:18:39;23.40;99.90
20973;DHT22;10645;52.370;13.314;2023-07-29T13:21:05;23.40;99.90
20973;DHT22;10645;52.370;13.314;2023-07-29T13:23:31;23.30;99.90
20973;DHT22;10645;52.370;13.314;2023-07-29T13:25:57;23.50;99.90
20973;DHT22;10645;52.370;13.314;2023-07-29T13:28:24;23.70;99.90
20973;DHT22;10645;52.370;13.314;2023-07-29T13:30:50;24.30;99.90
20973;DHT22;10645;52.370;13.314;2023-07-29T13:33:16;24.80;99.90
20973;DHT22;10645;52.370;13.314;2023-07-29T13:35:42;25.20;99.90
20973;DHT22;10645;52.370;13.314;2023-07-29T13:38:09;25.20;99.90
20973;DHT22;10645;52.370;13.314;2023-07-29T13:40:35;25.10;99.90
20973;DHT22;10645;52.370;13.314;2023-07-29T13:43:01;25.40;99.90
20973;DHT22;10645;52.370;13.314;2023-07-29T13:45:27;25.60;99.90
20973;DHT22;10645;52.370;13.314;2023-07-29T13:47:53;26.00;99.90
20973;DHT22;10645;52.370;13.314;2023-07-29T13:50:19;26.10;99.90
20973;DHT22;10645;52.370;13.314;2023-07-29T13:52:45;26.20;99.90
20973;DHT22;10645;52.370;13.314;2023-07-29T13:55:12;26.20;99.90
20973;DHT22;10645;52.370;13.314;2023-07-29T13:57:38;25.50;99.90
20973;DHT22;10645;52.370;13.314;2023-07-29T14:00:06;25.40;99.90
20973;DHT22;10645;52.370;13.314;2023-07-29T14:02:37;25.30;99.90
20973;DHT22;10645;52.370;13.314;2023-07-29T14:05:03;25.10;99.90
20973;DHT22;10645;52.370;13.314;2023-07-29T14:07:29;25.10;99.90
20973;DHT22;10645;52.370;13.314;2023-07-29T14:09:55;25.30;99.90
20973;DHT22;10645;52.370;13.314;2023-07-29T14:12:21;25.50;99.90
20973;DHT22;10645;52.370;13.314;2023-07-29T14:14:47;25.60;99.90
20973;DHT22;10645;52.370;13.314;2023-07-29T14:17:14;25.80;99.90
20973;DHT22;10645;52.370;13.314;2023-07-29T14:19:40;25.60;99.90
20973;DHT22;10645;52.370;13.314;2023-07-29T14:22:06;25.70;99.90
20973;DHT22;10645;52.370;13.314;2023-07-29T14:24:32;25.80;99.90
20973;DHT22;10645;52.370;13.314;2023-07-29T14:26:58;25.80;99.90
20973;DHT22;10645;52.370;13.314;2023-07-29T14:29:24;25.60;99.90
20973;DHT22;10645;52.370;13.314;2023-07-29T14:31:50;25.50;99.90
20973;DHT22;10645;52.370;13.314;2023-07-29T14:34:16;25.10;99.90
20973;DHT22;10645;52.370;13.314;2023-07-29T14:36:42;25.00;99.90
20973;DHT22;10645;52.370;13.314;2023-07-29T14:39:08;25.20;99.90
20973;DHT22;10645;52.370;13.314;2023-07-29T14:41:34;25.50;99.90
20973;DHT22;10645;52.370;13.314;2023-07-29T14:44:00;25.70;99.90
20973;DHT22;10645;52.370;13.314;2023-07-29T14:46:26;26.10;99.90
20973;DHT22;10645;52.370;13.314;2023-07-29T14:48:52;26.00;99.90
20973;DHT22;10645;52.370;13.314;2023-07-29T14:51:18;25.70;99.90
20973;DHT22;10645;52.370;13.314;2023-07-29T14:53:44;25.10;99.90
20973;DHT22;10645;52.370;13.314;2023-07-29T14:56:11;24.70;99.90
20973;DHT22;10645;52.370;13.314;2023-07-29T14:58:37;24.40;99.90
20973;DHT22;10645;52.370;13.314;2023-07-29T15:01:03;24.30;99.90
20973;DHT22;10645;52.370;13.314;2023-07-29T15:03:29;24.10;99.90
20973;DHT22;10645;52.370;13.314;2023-07-29T15:05:55;24.00;99.90
20973;DHT22;10645;52.370;13.314;2023-07-29T15:08:21;23.90;99.90
20973;DHT22;10645;52.370;13.314;2023-07-29T15:10:47;23.80;99.90
20973;DHT22;10645;52.370;13.314;2023-07-29T15:13:14;23.70;99.90
20973;DHT22;10645;52.370;13.314;2023-07-29T15:15:41;23.70;99.90
20973;DHT22;10645;52.370;13.314;2023-07-29T15:18:07;23.60;99.90
20973;DHT22;10645;52.370;13.314;2023-07-29T15:20:34;23.80;99.90
20973;DHT22;10645;52.370;13.314;2023-07-29T15:23:00;24.00;99.90
20973;DHT22;10645;52.370;13.314;2023-07-29T15:25:26;24.10;99.90